Time;durP1;ratioP1;P1;durP2;ratioP2;P2;SDS_P1;SDS_P2;PMS_P1;PMS_P2;Temp;Humidity;BMP_temperature;BMP_pressure;BME280_temperature;BME280_humidity;BME280_pressure;Samples;Min_cycle;Max_cycle;Signal;HPM_P1;HPM_P2
2022/03/11 00:02:34;;;;;;;9.00;4.35;;;;;;;-2.21;60.46;97679.38;5035330;28;20610;-62
2022/03/11 00:05:01;;;;;;;7.13;3.85;;;;;;;-2.23;60.71;97676.03;5026141;28;20046;-63
2022/03/11 00:07:27;;;;;;;7.95;3.70;;;;;;;-2.24;60.41;97674.38;5026455;28;20049;-63
2022/03/11 00:09:54;;;;;;;8.88;3.70;;;;;;;-2.36;60.77;97672.03;5026465;28;20053;-64
2022/03/11 00:12:21;;;;;;;8.73;4.00;;;;;;;-2.32;60.91;97664.56;5026233;28;20055;-62
2022/03/11 00:14:47;;;;;;;7.55;4.63;;;;;;;-2.39;61.42;97666.22;5025957;28;20574;-63
2022/03/11 00:17:14;;;;;;;10.10;4.28;;;;;;;-2.37;61.53;97659.75;5025584;28;20048;-63
2022/03/11 00:19:40;;;;;;;9.30;4.45;;;;;;;-2.33;61.08;97667.41;5026475;28;20169;-63
2022/03/11 00:22:07;;;;;;;7.63;4.28;;;;;;;-2.18;60.81;97667.59;5025566;28;20053;-62
2022/03/11 00:24:34;;;;;;;10.38;4.20;;;;;;;-2.14;60.68;97666.28;5026563;28;20040;-63
2022/03/11 00:27:00;;;;;;;8.40;4.00;;;;;;;-2.14;60.66;97653.84;5025906;28;20054;-63
2022/03/11 00:29:28;;;;;;;8.80;4.25;;;;;;;-2.18;60.85;97657.00;5024847;28;20128;-62
2022/03/11 00:31:54;;;;;;;10.45;4.32;;;;;;;-2.26;61.04;97661.28;5026770;28;20052;-63
2022/03/11 00:34:21;;;;;;;9.20;4.95;;;;;;;-2.26;61.19;97653.31;5026011;28;20067;-61
2022/03/11 00:36:47;;;;;;;8.32;3.88;;;;;;;-2.26;61.02;97649.81;5034663;28;20036;-63
2022/03/11 00:39:14;;;;;;;8.40;4.28;;;;;;;-2.32;61.22;97659.25;5031625;28;20060;-63
2022/03/11 00:41:41;;;;;;;7.30;3.97;;;;;;;-2.35;61.12;97656.94;5025520;28;20595;-62
2022/03/11 00:44:08;;;;;;;7.93;3.60;;;;;;;-2.21;60.87;97652.84;5025734;28;20048;-64
2022/03/11 00:46:34;;;;;;;7.85;3.90;;;;;;;-2.16;60.68;97657.66;5025530;28;20057;-62
2022/03/11 00:49:02;;;;;;;7.80;3.80;;;;;;;-2.19;60.81;97660.63;5026270;28;20073;-63
2022/03/11 00:51:28;;;;;;;8.52;4.30;;;;;;;-2.25;61.30;97664.78;5026093;28;20052;-62
2022/03/11 00:53:55;;;;;;;9.48;4.15;;;;;;;-2.33;61.63;97659.44;5022698;28;20095;-64
2022/03/11 00:56:23;;;;;;;9.25;4.07;;;;;;;-2.26;61.05;97661.28;5025331;28;20713;-62
2022/03/11 00:58:49;;;;;;;8.23;4.00;;;;;;;-2.16;60.75;97660.28;5024900;28;20775;-62
2022/03/11 01:01:16;;;;;;;8.98;3.72;;;;;;;-2.19;61.31;97663.25;5025909;28;20034;-63
2022/03/11 01:03:43;;;;;;;7.10;3.97;;;;;;;-2.33;61.78;97660.25;5024397;28;20132;-62
2022/03/11 01:06:10;;;;;;;12.07;3.97;;;;;;;-2.36;61.65;97656.13;5024892;28;20037;-62
2022/03/11 01:08:36;;;;;;;9.52;4.72;;;;;;;-2.37;61.80;97662.41;5024354;28;20045;-63
2022/03/11 01:11:04;;;;;;;10.95;4.25;;;;;;;-2.46;62.27;97651.94;5025236;28;20053;-63
2022/03/11 01:13:30;;;;;;;9.38;4.65;;;;;;;-2.50;62.12;97654.91;5025470;28;20045;-62
2022/03/11 01:15:57;;;;;;;9.38;4.65;;;;;;;-2.57;62.97;97651.25;5019214;28;20045;-61
2022/03/11 01:18:23;;;;;;;12.57;5.03;;;;;;;-2.72;63.14;97650.19;5024643;28;20461;-63
2022/03/11 01:20:50;;;;;;;8.98;5.05;;;;;;;-2.94;64.00;97649.78;5025703;28;20041;-61
2022/03/11 01:23:17;;;;;;;11.45;4.97;;;;;;;-2.99;64.08;97654.72;5025227;28;20096;-61
2022/03/11 01:25:43;;;;;;;9.73;4.78;;;;;;;-2.99;64.20;97652.91;5025542;28;20048;-63
2022/03/11 01:28:10;;;;;;;9.23;4.97;;;;;;;-2.97;64.43;97650.09;5024030;28;20382;-62
2022/03/11 01:30:36;;;;;;;8.95;4.57;;;;;;;-2.86;63.89;97639.22;5021204;28;20673;-63
2022/03/11 01:33:03;;;;;;;9.52;4.55;;;;;;;-2.96;64.52;97649.09;5025718;28;20060;-62
2022/03/11 01:35:30;;;;;;;8.73;4.65;;;;;;;-3.10;64.61;97643.41;5025056;28;20124;-63
2022/03/11 01:37:56;;;;;;;8.73;4.38;;;;;;;-3.14;65.02;97642.91;5025442;28;20060;-62
2022/03/11 01:40:24;;;;;;;9.63;4.80;;;;;;;-3.16;65.31;97649.34;5026039;28;20463;-64
2022/03/11 01:42:51;;;;;;;9.82;4.70;;;;;;;-3.23;65.54;97654.44;5024709;28;20188;-63
2022/03/11 01:45:18;;;;;;;10.85;5.18;;;;;;;-3.34;65.71;97642.31;5025276;28;20074;-63
2022/03/11 01:47:45;;;;;;;10.23;5.10;;;;;;;-3.35;65.88;97643.28;5021830;28;20052;-62
2022/03/11 01:50:11;;;;;;;9.48;4.50;;;;;;;-3.37;66.04;97637.31;5024855;28;20038;-64
2022/03/11 01:52:38;;;;;;;9.73;5.80;;;;;;;-3.35;66.25;97635.34;5024736;28;20038;-63
2022/03/11 01:55:05;;;;;;;10.88;5.45;;;;;;;-3.42;66.14;97629.81;5023728;28;20603;-63
2022/03/11 01:57:37;;;;;;;9.18;5.05;;;;;;;-3.20;65.97;97632.09;5022950;28;20044;-63
2022/03/11 02:00:05;;;;;;;9.75;4.32;;;;;;;-3.10;65.48;97640.75;5024266;28;20033;-62
2022/03/11 02:02:38;;;;;;;10.32;4.68;;;;;;;-3.02;65.33;97640.00;5019190;28;20746;-62
2022/03/11 02:05:05;;;;;;;10.57;4.88;;;;;;;-2.97;64.81;97628.91;5024324;28;20056;-62
2022/03/11 02:07:32;;;;;;;11.55;5.20;;;;;;;-3.09;65.58;97628.34;5027805;28;20072;-63
2022/03/11 02:09:59;;;;;;;8.27;4.13;;;;;;;-3.21;65.19;97625.97;5028957;28;20044;-64
2022/03/11 02:12:34;;;;;;;10.43;5.55;;;;;;;-3.36;66.54;97624.91;5028400;28;20172;-62
2022/03/11 02:15:06;;;;;;;12.88;5.32;;;;;;;-3.29;66.36;97621.47;5028462;28;20052;-62
2022/03/11 02:17:32;;;;;;;11.00;4.95;;;;;;;-3.20;65.94;97632.94;5028102;28;20049;-61
2022/03/11 02:19:59;;;;;;;10.20;4.72;;;;;;;-3.10;65.40;97627.50;5028125;28;20551;-62
2022/03/11 02:22:27;;;;;;;12.57;5.85;;;;;;;-3.24;66.19;97622.81;5028756;28;20631;-62
2022/03/11 02:24:55;;;;;;;11.65;5.43;;;;;;;-3.20;66.27;97621.50;5028223;28;20041;-62
2022/03/11 02:27:22;;;;;;;12.48;5.88;;;;;;;-3.35;66.53;97626.56;5027708;28;20493;-62
2022/03/11 02:29:49;;;;;;;10.50;5.90;;;;;;;-3.59;67.35;97625.41;5028356;28;20095;-61
2022/03/11 02:32:15;;;;;;;11.18;5.22;;;;;;;-3.71;68.35;97628.31;5029200;28;20057;-62
2022/03/11 02:34:42;;;;;;;9.13;5.50;;;;;;;-3.59;67.67;97618.31;5032201;28;20048;-62
2022/03/11 02:37:09;;;;;;;12.80;5.90;;;;;;;-3.43;67.19;97620.22;5027422;28;20049;-62
2022/03/11 02:39:36;;;;;;;11.80;6.22;;;;;;;-3.29;66.73;97623.28;5028508;28;20049;-62
2022/03/11 02:42:05;;;;;;;9.45;5.20;;;;;;;-3.30;66.91;97609.22;5028329;28;20041;-62
2022/03/11 02:44:32;;;;;;;13.23;5.60;;;;;;;-3.47;67.64;97605.63;5031142;28;20041;-62
2022/03/11 02:47:02;;;;;;;11.07;5.53;;;;;;;-3.58;67.99;97608.56;5026984;28;20095;-63
2022/03/11 02:49:28;;;;;;;12.55;5.78;;;;;;;-3.54;67.95;97610.72;5027424;28;20047;-62
2022/03/11 02:51:59;;;;;;;12.20;5.85;;;;;;;-3.44;67.26;97609.78;5045411;28;20044;-62
2022/03/11 02:54:25;;;;;;;12.57;5.95;;;;;;;-3.38;67.20;97603.03;5022580;28;20112;-61
2022/03/11 02:56:52;;;;;;;11.85;5.70;;;;;;;-3.48;67.78;97600.50;5015356;28;20065;-64
2022/03/11 02:59:19;;;;;;;12.43;6.60;;;;;;;-3.63;68.22;97602.88;5008373;28;20064;-62
2022/03/11 03:01:46;;;;;;;9.10;5.18;;;;;;;-3.63;68.13;97597.59;5033622;28;20145;-61
2022/03/11 03:04:13;;;;;;;9.68;5.20;;;;;;;-3.64;68.47;97596.78;5026256;28;20037;-64
2022/03/11 03:06:40;;;;;;;10.55;5.82;;;;;;;-3.72;68.64;97589.59;5027181;28;20421;-63
2022/03/11 03:09:07;;;;;;;11.57;6.30;;;;;;;-3.79;68.76;97597.31;5024134;28;20044;-63
2022/03/11 03:11:34;;;;;;;9.50;5.30;;;;;;;-3.82;69.50;97588.88;5022290;28;20499;-63
2022/03/11 03:14:01;;;;;;;10.18;5.22;;;;;;;-3.68;68.66;97590.13;5027735;28;20049;-61
2022/03/11 03:16:28;;;;;;;14.07;6.50;;;;;;;-3.64;68.53;97591.47;5027433;28;20048;-61
2022/03/11 03:18:55;;;;;;;11.98;6.07;;;;;;;-3.67;68.44;97591.78;5025724;28;20049;-62
2022/03/11 03:21:22;;;;;;;12.07;5.57;;;;;;;-3.81;69.08;97585.25;5026686;28;20053;-62
2022/03/11 03:23:48;;;;;;;14.55;6.93;;;;;;;-3.86;69.46;97595.47;5027102;28;20405;-61
2022/03/11 03:26:15;;;;;;;16.33;7.00;;;;;;;-3.92;69.86;97591.59;5027295;28;20044;-63
2022/03/11 03:28:41;;;;;;;13.38;6.63;;;;;;;-4.01;69.82;97598.66;5027515;28;20045;-63
2022/03/11 03:31:12;;;;;;;15.60;6.70;;;;;;;-4.03;71.00;97589.22;5026998;28;20045;-62
2022/03/11 03:33:39;;;;;;;15.15;6.93;;;;;;;-4.08;70.97;97598.44;5029157;28;20048;-62
2022/03/11 03:36:05;;;;;;;16.08;7.20;;;;;;;-3.95;70.63;97597.19;5026727;28;20440;-62
2022/03/11 03:38:32;;;;;;;14.18;6.53;;;;;;;-3.97;71.29;97599.19;5026582;28;20049;-62
2022/03/11 03:40:59;;;;;;;14.65;7.13;;;;;;;-3.99;71.37;97601.16;5025580;28;20156;-62
2022/03/11 03:43:26;;;;;;;15.57;7.00;;;;;;;-3.94;71.34;97596.25;5027429;28;20049;-63
2022/03/11 03:45:52;;;;;;;15.88;6.95;;;;;;;-3.87;71.24;97591.16;5026706;28;20045;-62
2022/03/11 03:48:19;;;;;;;18.92;7.60;;;;;;;-3.81;71.31;97593.19;5023292;28;20033;-61
2022/03/11 03:50:47;;;;;;;14.05;7.00;;;;;;;-3.93;70.98;97590.78;5028571;28;20128;-62
2022/03/11 03:53:13;;;;;;;17.40;8.43;;;;;;;-3.85;72.49;97587.38;5026437;28;20048;-62
2022/03/11 03:55:40;;;;;;;17.27;8.65;;;;;;;-3.81;72.26;97583.44;5027062;28;20041;-64
2022/03/11 03:58:07;;;;;;;16.98;9.35;;;;;;;-3.80;72.71;97593.03;5027356;28;20053;-64
2022/03/11 04:00:34;;;;;;;14.38;8.60;;;;;;;-3.84;72.33;97589.03;5033334;28;20041;-62
2022/03/11 04:03:01;;;;;;;18.98;8.65;;;;;;;-3.92;72.54;97583.66;5030802;28;20042;-63
2022/03/11 04:05:28;;;;;;;16.13;8.43;;;;;;;-3.91;72.83;97585.31;5026376;28;20740;-63
2022/03/11 04:07:54;;;;;;;17.70;8.70;;;;;;;-3.93;72.89;97584.66;5026546;28;20045;-64
2022/03/11 04:10:21;;;;;;;20.75;8.75;;;;;;;-3.92;72.72;97588.97;5027015;28;20053;-62
2022/03/11 04:12:48;;;;;;;17.52;7.72;;;;;;;-4.02;72.73;97590.88;5024767;28;20045;-61
2022/03/11 04:15:14;;;;;;;15.07;7.68;;;;;;;-4.03;72.55;97592.69;5027225;28;20520;-63
2022/03/11 04:17:41;;;;;;;16.08;9.23;;;;;;;-4.14;74.12;97585.81;5026208;28;20041;-62
2022/03/11 04:20:09;;;;;;;17.20;8.55;;;;;;;-4.13;73.66;97584.84;5026206;28;20045;-62
2022/03/11 04:22:43;;;;;;;17.42;9.20;;;;;;;-4.14;74.35;97590.28;5026228;28;20064;-61
2022/03/11 04:25:10;;;;;;;17.65;9.30;;;;;;;-4.05;74.01;97590.19;5028615;28;20046;-62
2022/03/11 04:27:38;;;;;;;19.52;9.77;;;;;;;-4.11;74.08;97590.81;5026181;28;20041;-62
2022/03/11 04:30:05;;;;;;;19.23;10.27;;;;;;;-4.13;74.55;97586.66;5025015;28;20548;-63
2022/03/11 04:32:32;;;;;;;21.35;10.43;;;;;;;-4.01;74.31;97584.59;5033639;28;20636;-61
2022/03/11 04:34:58;;;;;;;17.30;9.93;;;;;;;-4.19;73.96;97586.28;5023537;28;20045;-61
2022/03/11 04:37:25;;;;;;;18.52;9.35;;;;;;;-4.28;74.91;97594.31;5023318;28;20050;-62
2022/03/11 04:39:51;;;;;;;17.85;9.63;;;;;;;-4.33;75.74;97598.22;5026123;28;20034;-62
2022/03/11 04:42:18;;;;;;;21.65;11.48;;;;;;;-4.36;75.76;97600.31;5025507;28;20111;-62
2022/03/11 04:44:45;;;;;;;15.80;9.85;;;;;;;-4.30;75.03;97599.75;5025986;28;20695;-62
2022/03/11 04:47:12;;;;;;;19.63;9.85;;;;;;;-4.29;74.66;97589.97;5025011;28;20041;-61
2022/03/11 04:49:39;;;;;;;20.30;10.05;;;;;;;-4.21;76.05;97590.06;5025896;28;20413;-62
2022/03/11 04:52:07;;;;;;;20.48;9.52;;;;;;;-4.26;74.81;97587.03;5025293;28;20076;-61
2022/03/11 04:54:34;;;;;;;24.35;11.48;;;;;;;-4.26;75.46;97590.53;5025628;28;20448;-62
2022/03/11 04:57:01;;;;;;;20.52;10.50;;;;;;;-4.30;75.57;97591.81;5025809;28;20041;-62
2022/03/11 04:59:28;;;;;;;24.65;10.93;;;;;;;-4.29;75.99;97588.19;5025031;28;20724;-61
2022/03/11 05:01:54;;;;;;;26.15;11.70;;;;;;;-4.21;75.83;97592.69;5025050;28;20297;-62
2022/03/11 05:04:21;;;;;;;19.85;10.23;;;;;;;-4.22;74.56;97588.41;5025496;28;20056;-61
2022/03/11 05:06:48;;;;;;;23.17;11.13;;;;;;;-4.32;75.50;97596.41;5025024;28;20037;-62
2022/03/11 05:09:14;;;;;;;22.48;10.45;;;;;;;-4.31;75.94;97590.97;5024636;28;20100;-62
2022/03/11 05:11:41;;;;;;;20.80;10.70;;;;;;;-4.31;75.25;97601.53;5025121;28;20052;-63
2022/03/11 05:14:07;;;;;;;19.50;9.88;;;;;;;-4.33;75.80;97590.31;5025796;28;20121;-62
2022/03/11 05:16:34;;;;;;;22.45;11.57;;;;;;;-4.43;76.41;97600.09;5025534;28;20045;-62
2022/03/11 05:19:00;;;;;;;20.98;11.25;;;;;;;-4.49;76.54;97596.25;5025185;28;20069;-62
2022/03/11 05:21:27;;;;;;;21.50;11.23;;;;;;;-4.44;77.04;97595.81;5025802;28;20455;-63
2022/03/11 05:23:54;;;;;;;20.85;10.98;;;;;;;-4.38;76.67;97589.94;5025683;28;20037;-62
2022/03/11 05:26:28;;;;;;;23.65;11.80;;;;;;;-4.37;78.31;97596.88;5026402;28;20041;-61
2022/03/11 05:28:58;;;;;;;21.50;11.27;;;;;;;-4.32;76.36;97602.53;5024879;28;20049;-62
2022/03/11 05:31:26;;;;;;;20.20;11.10;;;;;;;-4.26;76.88;97598.47;5015872;28;20045;-61
2022/03/11 05:33:54;;;;;;;22.13;11.88;;;;;;;-4.34;76.26;97598.38;5023999;28;20475;-62
2022/03/11 05:36:22;;;;;;;24.08;11.88;;;;;;;-4.36;76.94;97606.47;5022995;28;20048;-62
2022/03/11 05:38:49;;;;;;;23.25;11.73;;;;;;;-4.49;76.03;97609.47;5021593;28;20409;-63
2022/03/11 05:41:16;;;;;;;27.17;12.70;;;;;;;-4.44;77.22;97607.22;5025420;28;20049;-62
2022/03/11 05:43:43;;;;;;;26.55;12.82;;;;;;;-4.40;77.27;97606.91;5029456;28;20593;-61
2022/03/11 05:46:09;;;;;;;29.90;14.68;;;;;;;-4.32;77.16;97605.19;5027225;28;20041;-63
2022/03/11 05:48:36;;;;;;;26.08;15.27;;;;;;;-4.18;76.67;97609.09;5025621;28;20348;-61
2022/03/11 05:51:06;;;;;;;25.60;11.52;;;;;;;-4.28;75.38;97602.25;5027062;28;20050;-64
2022/03/11 05:53:33;;;;;;;24.40;11.25;;;;;;;-4.33;76.74;97600.88;5025842;28;20048;-62
2022/03/11 05:55:59;;;;;;;24.45;11.77;;;;;;;-4.20;75.66;97608.41;5024278;28;20099;-63
2022/03/11 05:58:26;;;;;;;21.33;11.43;;;;;;;-4.11;75.27;97605.84;5025991;28;20045;-64
2022/03/11 06:00:53;;;;;;;22.50;11.90;;;;;;;-4.00;74.88;97600.31;5023943;28;20048;-61
2022/03/11 06:03:20;;;;;;;23.63;11.20;;;;;;;-4.07;74.60;97605.41;5026689;28;20045;-63
2022/03/11 06:05:47;;;;;;;23.15;12.38;;;;;;;-3.86;74.32;97609.53;5026108;28;20409;-62
2022/03/11 06:08:14;;;;;;;24.05;10.75;;;;;;;-3.76;73.84;97608.59;5026192;28;20513;-63
2022/03/11 06:10:42;;;;;;;19.92;10.65;;;;;;;-3.80;73.33;97610.72;5030037;28;20044;-62
2022/03/11 06:13:09;;;;;;;22.58;12.00;;;;;;;-3.75;73.20;97615.53;5030540;28;20740;-62
2022/03/11 06:15:35;;;;;;;20.38;11.50;;;;;;;-3.81;73.19;97611.69;5030194;28;20048;-62
2022/03/11 06:18:02;;;;;;;25.67;12.43;;;;;;;-3.63;73.04;97609.03;5026476;28;20084;-62
2022/03/11 06:20:30;;;;;;;25.23;11.40;;;;;;;-3.55;71.85;97613.53;5024155;28;20052;-62
2022/03/11 06:22:57;;;;;;;21.73;10.75;;;;;;;-3.63;72.06;97610.81;5024496;28;20069;-62
2022/03/11 06:25:24;;;;;;;24.58;12.07;;;;;;;-3.65;72.81;97608.31;5025405;28;20048;-62
2022/03/11 06:27:50;;;;;;;26.17;12.45;;;;;;;-3.71;72.84;97615.09;5027460;28;20044;-62
2022/03/11 06:30:17;;;;;;;22.88;11.13;;;;;;;-3.73;72.86;97617.06;5032189;28;20044;-63
2022/03/11 06:32:49;;;;;;;23.52;11.27;;;;;;;-3.56;74.00;97611.88;5031528;28;20051;-63
2022/03/11 06:35:17;;;;;;;20.10;10.77;;;;;;;-3.60;73.09;97616.66;5023695;28;20045;-62
2022/03/11 06:37:46;;;;;;;27.27;12.05;;;;;;;-3.54;73.32;97612.56;5024813;28;20045;-63
2022/03/11 06:40:14;;;;;;;20.13;10.95;;;;;;;-3.46;72.84;97604.63;5026622;28;20055;-64
2022/03/11 06:42:42;;;;;;;24.83;13.23;;;;;;;-3.26;72.51;97612.38;5024018;28;20045;-63
2022/03/11 06:45:10;;;;;;;23.85;11.80;;;;;;;-3.02;71.51;97605.53;5024461;28;20041;-63
2022/03/11 06:47:37;;;;;;;27.35;11.77;;;;;;;-3.02;71.75;97602.91;5020621;28;20045;-63
2022/03/11 06:50:05;;;;;;;23.55;11.60;;;;;;;-2.97;71.67;97597.94;5023953;28;20052;-63
2022/03/11 06:52:32;;;;;;;25.92;11.18;;;;;;;-3.01;71.74;97602.75;5023565;28;20413;-64
2022/03/11 06:54:59;;;;;;;21.73;11.18;;;;;;;-2.90;72.35;97596.31;5018089;28;20575;-61
2022/03/11 06:57:26;;;;;;;23.25;12.85;;;;;;;-2.78;72.08;97602.16;5023214;28;20037;-62
2022/03/11 06:59:53;;;;;;;21.40;11.77;;;;;;;-2.65;71.65;97608.81;5025259;28;20061;-62
2022/03/11 07:02:19;;;;;;;25.15;12.43;;;;;;;-2.63;71.48;97596.22;5030539;28;20045;-63
2022/03/11 07:04:52;;;;;;;25.95;12.02;;;;;;;-2.51;71.42;97602.88;5025053;28;20044;-64
2022/03/11 07:07:19;;;;;;;25.17;11.77;;;;;;;-2.28;70.43;97610.19;5025345;28;20647;-62
2022/03/11 07:09:45;;;;;;;25.15;10.98;;;;;;;-2.25;71.60;97611.72;5023408;28;20101;-64
2022/03/11 07:12:12;;;;;;;24.75;11.57;;;;;;;-2.18;70.60;97609.25;5010626;28;20057;-64
2022/03/11 07:14:38;;;;;;;28.40;12.32;;;;;;;-2.19;71.32;97612.88;5037300;28;20045;-61
2022/03/11 07:17:06;;;;;;;26.23;13.27;;;;;;;-2.02;70.74;97613.72;5026557;28;20049;-62
2022/03/11 07:19:34;;;;;;;24.63;12.10;;;;;;;-1.71;70.79;97615.69;5037110;28;20059;-62
2022/03/11 07:22:04;;;;;;;22.65;11.82;;;;;;;-1.55;70.55;97614.84;5026461;28;20050;-64
2022/03/11 07:24:32;;;;;;;24.80;13.03;;;;;;;-1.22;68.16;97617.44;5025755;28;20049;-63
2022/03/11 07:26:59;;;;;;;22.38;11.70;;;;;;;-0.95;66.96;97612.69;5022839;28;20386;-62
2022/03/11 07:29:26;;;;;;;21.88;11.77;;;;;;;-0.67;66.28;97612.25;5012145;28;20049;-63
2022/03/11 07:31:52;;;;;;;20.48;11.55;;;;;;;-0.46;65.36;97602.00;5025059;28;20319;-62
2022/03/11 07:34:20;;;;;;;20.15;11.38;;;;;;;-0.29;65.01;97608.88;5025417;28;20049;-64
2022/03/11 07:36:47;;;;;;;22.98;10.95;;;;;;;-0.15;64.90;97607.28;5024982;28;20045;-63
2022/03/11 07:39:14;;;;;;;20.98;11.13;;;;;;;0.00;64.42;97611.84;5037187;28;20444;-62
2022/03/11 07:41:40;;;;;;;20.73;11.93;;;;;;;0.16;63.56;97610.88;5023828;28;20049;-63
2022/03/11 07:44:08;;;;;;;22.63;11.43;;;;;;;0.34;63.35;97613.22;5024856;28;20532;-62
2022/03/11 07:46:41;;;;;;;24.50;12.68;;;;;;;0.49;61.90;97615.94;5025233;28;20141;-63
2022/03/11 07:49:09;;;;;;;21.40;11.88;;;;;;;0.58;61.85;97606.00;5024311;28;20275;-63
2022/03/11 07:51:36;;;;;;;22.75;11.85;;;;;;;0.73;61.45;97607.84;5024035;28;20055;-63
2022/03/11 07:54:03;;;;;;;24.33;12.20;;;;;;;0.78;60.70;97608.97;5026414;28;20493;-64
2022/03/11 07:56:29;;;;;;;22.70;11.40;;;;;;;0.79;60.94;97617.78;5026401;28;20048;-63
2022/03/11 07:58:56;;;;;;;22.15;12.10;;;;;;;0.85;61.16;97609.06;5026981;28;20061;-64
2022/03/11 08:01:23;;;;;;;21.45;12.05;;;;;;;1.00;60.36;97608.25;5038257;28;20074;-63
2022/03/11 08:03:50;;;;;;;19.27;11.57;;;;;;;1.08;60.57;97608.16;5027255;28;20068;-64
2022/03/11 08:06:17;;;;;;;24.05;12.40;;;;;;;1.13;60.13;97608.41;5026728;28;20539;-63
2022/03/11 08:08:43;;;;;;;22.67;12.45;;;;;;;1.30;59.39;97602.88;5027434;28;20037;-63
2022/03/11 08:11:11;;;;;;;20.98;11.43;;;;;;;1.43;59.26;97599.53;5026875;28;20048;-64
2022/03/11 08:13:38;;;;;;;21.90;12.38;;;;;;;1.46;59.06;97598.31;5026055;28;20065;-63
2022/03/11 08:16:10;;;;;;;21.70;11.45;;;;;;;1.50;59.04;97594.25;5022558;28;20112;-63
2022/03/11 08:18:37;;;;;;;21.45;11.73;;;;;;;1.59;59.05;97590.50;5019733;28;20069;-62
2022/03/11 08:21:03;;;;;;;22.85;11.90;;;;;;;1.73;58.25;97593.28;5026377;28;20073;-64
2022/03/11 08:23:30;;;;;;;20.90;11.70;;;;;;;1.80;57.98;97588.81;5027089;28;20052;-62
2022/03/11 08:25:57;;;;;;;20.45;11.38;;;;;;;1.89;57.72;97593.06;5025580;28;20049;-62
2022/03/11 08:28:24;;;;;;;21.98;12.55;;;;;;;1.92;57.29;97597.19;5026666;28;20049;-63
2022/03/11 08:30:51;;;;;;;22.33;11.52;;;;;;;2.09;57.52;97597.75;5025182;28;20420;-62
2022/03/11 08:33:22;;;;;;;17.65;10.93;;;;;;;2.15;57.19;97596.16;5026468;28;20501;-64
2022/03/11 08:36:09;;;;;;;18.15;11.00;;;;;;;2.36;56.30;97599.81;5025918;28;20080;-63
2022/03/11 08:38:38;;;;;;;21.35;11.90;;;;;;;2.50;55.97;97606.09;5026197;28;20056;-62
2022/03/11 08:41:07;;;;;;;20.13;11.65;;;;;;;2.56;55.58;97595.47;5025476;28;20037;-62
2022/03/11 08:43:38;;;;;;;20.95;11.40;;;;;;;2.70;55.78;97595.53;5026420;28;20046;-62
2022/03/11 08:46:07;;;;;;;;;;;;;;;2.89;55.27;97585.16;5040103;28;20041;-62
2022/03/11 08:48:34;;;;;;;23.83;11.60;;;;;;;2.96;54.50;97591.38;5041948;28;20476;-63
2022/03/11 08:51:01;;;;;;;20.25;11.27;;;;;;;3.05;55.03;97586.66;5045355;28;20531;-62
2022/03/11 08:53:27;;;;;;;21.10;10.93;;;;;;;3.17;54.95;97579.75;5044389;28;20045;-62
2022/03/11 08:55:54;;;;;;;21.98;11.15;;;;;;;3.22;54.46;97576.47;5025301;28;20038;-62
2022/03/11 08:58:20;;;;;;;21.45;11.60;;;;;;;3.37;53.28;97579.00;5025619;28;20049;-61
2022/03/11 09:00:47;;;;;;;24.05;12.65;;;;;;;3.51;52.98;97582.56;5027353;28;20053;-62
2022/03/11 09:03:14;;;;;;;21.23;10.30;;;;;;;3.59;52.52;97579.72;5025944;28;20735;-63
2022/03/11 09:05:41;;;;;;;19.15;11.07;;;;;;;3.60;52.67;97570.63;5022931;28;20073;-62
2022/03/11 09:08:07;;;;;;;20.80;11.20;;;;;;;3.72;52.31;97562.81;5023487;28;20104;-63
2022/03/11 09:10:35;;;;;;;19.23;10.68;;;;;;;3.81;52.26;97560.78;5024309;28;20064;-63
2022/03/11 09:13:03;;;;;;;20.77;11.57;;;;;;;3.96;51.33;97563.28;5024031;28;20045;-62
2022/03/11 09:15:30;;;;;;;18.48;11.25;;;;;;;4.02;51.96;97564.34;5021317;28;20045;-61
2022/03/11 09:17:57;;;;;;;22.27;12.32;;;;;;;4.25;50.87;97555.06;5025206;28;20049;-62
2022/03/11 09:20:26;;;;;;;19.02;12.02;;;;;;;4.38;50.53;97554.22;5025931;28;20177;-61
2022/03/11 09:22:59;;;;;;;22.52;11.25;;;;;;;4.35;50.67;97550.09;5025986;28;20038;-61
2022/03/11 09:25:25;;;;;;;20.08;10.55;;;;;;;4.42;50.69;97553.59;5025682;28;20042;-62
2022/03/11 09:27:52;;;;;;;17.92;11.18;;;;;;;4.44;50.25;97548.03;5027362;28;20041;-62
2022/03/11 09:30:19;;;;;;;23.05;11.27;;;;;;;4.63;49.43;97542.84;5023790;28;20037;-63
2022/03/11 09:32:45;;;;;;;18.10;11.23;;;;;;;4.72;49.24;97546.13;5026829;28;20076;-62
2022/03/11 09:35:21;;;;;;;24.08;10.93;;;;;;;4.89;48.63;97550.00;5023751;28;20045;-63
2022/03/11 09:37:47;;;;;;;19.30;10.07;;;;;;;5.02;48.55;97530.34;5023086;28;20057;-62
2022/03/11 09:40:16;;;;;;;18.90;10.75;;;;;;;5.10;48.28;97542.72;5022852;28;20465;-62
2022/03/11 09:42:43;;;;;;;19.70;11.05;;;;;;;5.20;47.97;97532.34;5023036;28;20061;-62
2022/03/11 09:45:10;;;;;;;20.67;11.05;;;;;;;5.24;47.26;97539.97;5020162;28;20120;-62
2022/03/11 09:47:40;;;;;;;18.15;10.38;;;;;;;5.31;47.45;97536.22;5022391;28;20072;-63
2022/03/11 09:50:08;;;;;;;18.92;10.57;;;;;;;5.40;46.61;97534.13;5025727;28;20041;-62
2022/03/11 09:52:35;;;;;;;18.83;9.52;;;;;;;5.56;46.15;97537.31;5024615;28;20052;-63
2022/03/11 09:55:06;;;;;;;18.05;10.05;;;;;;;5.66;46.02;97531.50;5024784;28;20052;-62
2022/03/11 09:57:34;;;;;;;18.25;10.35;;;;;;;5.69;45.97;97523.84;5024812;28;20038;-62
2022/03/11 10:00:00;;;;;;;19.08;10.50;;;;;;;5.71;45.37;97524.44;5027483;28;20052;-61
2022/03/11 10:02:41;;;;;;;21.95;9.63;;;;;;;5.67;45.02;97525.91;5031704;28;20360;-62
2022/03/11 10:05:08;;;;;;;17.23;10.00;;;;;;;5.71;44.92;97526.28;5023018;28;20180;-63
2022/03/11 10:08:04;;;;;;;17.73;10.15;;;;;;;5.73;44.35;97543.84;5019694;28;20049;-62
2022/03/11 10:10:31;;;;;;;17.77;10.18;;;;;;;5.71;44.84;97531.66;5036050;28;20165;-63
2022/03/11 10:13:09;;;;;;;21.95;10.18;;;;;;;5.81;43.69;97534.72;5023007;28;20116;-62
2022/03/11 10:15:38;;;;;;;19.20;9.57;;;;;;;5.92;44.09;97535.03;5022977;28;20092;-62
2022/03/11 10:18:12;;;;;;;16.27;9.15;;;;;;;6.05;43.68;97537.66;5022329;28;20124;-63
2022/03/11 10:20:38;;;;;;;17.35;9.88;;;;;;;6.11;43.21;97539.47;5028207;28;20050;-61
2022/03/11 10:23:14;;;;;;;18.75;10.25;;;;;;;6.17;43.09;97542.34;5024655;28;20489;-63
2022/03/11 10:25:40;;;;;;;17.52;8.60;;;;;;;6.24;42.95;97535.84;5023726;28;20056;-62
2022/03/11 10:28:10;;;;;;;20.27;9.80;;;;;;;6.35;42.80;97531.63;5034497;28;20037;-63
2022/03/11 10:30:39;;;;;;;15.57;10.00;;;;;;;6.29;42.78;97537.06;5027854;28;20397;-62
2022/03/11 10:33:11;;;;;;;16.67;9.73;;;;;;;6.42;42.52;97528.06;5022067;28;20049;-62
2022/03/11 10:35:45;;;;;;;18.98;9.75;;;;;;;6.51;42.41;97526.72;5023889;28;20053;-62
2022/03/11 10:38:14;;;;;;;16.83;9.93;;;;;;;6.75;42.31;97529.59;5025767;28;20037;-62
2022/03/11 10:40:53;;;;;;;16.05;8.65;;;;;;;6.83;41.82;97528.47;5022373;28;20037;-63
2022/03/11 10:43:28;;;;;;;15.98;9.10;;;;;;;7.02;41.48;97523.91;5026448;28;20057;-64
2022/03/11 10:45:56;;;;;;;15.25;8.82;;;;;;;6.98;41.07;97520.03;5024817;28;20045;-63
2022/03/11 10:48:42;;;;;;;17.30;8.77;;;;;;;7.04;40.86;97516.44;5040899;28;20040;-64
2022/03/11 10:51:20;;;;;;;16.67;9.23;;;;;;;7.07;41.09;97509.78;5031758;28;20304;-64
2022/03/11 10:53:49;;;;;;;16.50;10.05;;;;;;;7.09;40.46;97513.06;5025235;28;20127;-63
2022/03/11 10:56:39;;;;;;;17.92;9.85;;;;;;;7.19;40.20;97516.03;5025951;28;20120;-63
2022/03/11 10:59:12;;;;;;;16.45;8.73;;;;;;;7.26;40.27;97513.28;5025025;28;20041;-63
2022/03/11 11:01:44;;;;;;;18.55;9.27;;;;;;;7.37;39.78;97520.59;5036109;28;20052;-62
2022/03/11 11:04:13;;;;;;;17.67;8.40;;;;;;;7.43;39.51;97521.53;5025497;28;20475;-64
2022/03/11 11:06:40;;;;;;;16.52;8.98;;;;;;;7.60;39.33;97512.81;5025545;28;20042;-63
2022/03/11 11:09:09;;;;;;;18.58;8.95;;;;;;;7.60;38.94;97518.22;5038441;28;20067;-63
2022/03/11 11:11:36;;;;;;;14.93;7.60;;;;;;;7.64;39.00;97514.00;5025644;28;20041;-63
2022/03/11 11:14:07;;;;;;;20.45;10.25;;;;;;;7.62;39.03;97513.41;5027514;28;20041;-63
2022/03/11 11:16:40;;;;;;;17.88;8.48;;;;;;;7.63;38.87;97512.38;5029742;28;20475;-64
2022/03/11 11:19:11;;;;;;;14.60;8.07;;;;;;;7.87;38.57;97505.16;5044429;28;20063;-62
2022/03/11 11:21:41;;;;;;;19.77;11.00;;;;;;;7.88;38.46;97500.59;5022895;28;20167;-63
2022/03/11 11:24:18;;;;;;;16.65;8.05;;;;;;;8.14;38.40;97499.34;5021858;28;20571;-62
2022/03/11 11:26:50;;;;;;;16.25;8.70;;;;;;;8.15;37.70;97490.19;5018852;28;20655;-62
2022/03/11 11:29:22;;;;;;;16.83;9.02;;;;;;;8.00;37.51;97487.16;5030861;28;20439;-62
2022/03/11 11:31:49;;;;;;;15.77;8.88;;;;;;;8.15;37.66;97489.38;5025071;28;20052;-62